createdAt,value
2022-09-15T00:00:46.502Z,997.64
2022-09-15T00:01:46.603Z,997.63
2022-09-15T00:02:46.633Z,997.65
2022-09-15T00:03:46.558Z,997.59
2022-09-15T00:04:46.572Z,997.65
2022-09-15T00:05:46.591Z,997.65
2022-09-15T00:06:46.608Z,997.65
2022-09-15T00:07:46.625Z,997.68
2022-09-15T00:08:46.645Z,997.66
2022-09-15T00:09:46.661Z,997.64
2022-09-15T00:10:46.679Z,997.64
2022-09-15T00:11:46.701Z,997.63
2022-09-15T00:12:46.713Z,997.64
2022-09-15T00:13:46.731Z,997.60
2022-09-15T00:14:46.748Z,997.58
2022-09-15T00:15:46.766Z,997.52
2022-09-15T00:16:46.874Z,997.57
2022-09-15T00:17:46.801Z,997.53
2022-09-15T00:18:46.819Z,997.53
2022-09-15T00:19:46.838Z,997.56
2022-09-15T00:20:46.855Z,997.52
2022-09-15T00:21:46.872Z,997.52
2022-09-15T00:22:46.889Z,997.51
2022-09-15T00:23:46.909Z,997.51
2022-09-15T00:24:46.926Z,997.44
2022-09-15T00:25:46.945Z,997.43
2022-09-15T00:26:46.967Z,997.43
2022-09-15T00:27:46.977Z,997.37
2022-09-15T00:28:46.999Z,997.32
2022-09-15T00:29:47.027Z,997.38
2022-09-15T00:30:47.146Z,997.36
2022-09-15T00:31:47.047Z,997.37
2022-09-15T00:32:47.065Z,997.41
2022-09-15T00:33:47.082Z,997.41
2022-09-15T00:34:47.101Z,997.46
2022-09-15T00:35:47.117Z,997.39
2022-09-15T00:36:47.137Z,997.42
2022-09-15T00:37:47.156Z,997.41
2022-09-15T00:38:47.179Z,997.48
2022-09-15T00:39:47.220Z,997.45
2022-09-15T00:40:47.205Z,997.49
2022-09-15T00:41:47.226Z,997.47
2022-09-15T00:42:47.240Z,997.53
2022-09-15T00:43:47.258Z,997.50
2022-09-15T00:44:47.275Z,997.49
2022-09-15T00:45:47.430Z,997.55
2022-09-15T00:47:04.000Z,997.53
2022-09-15T00:47:47.331Z,997.53
2022-09-15T00:48:47.347Z,997.55
2022-09-15T00:49:47.365Z,997.56
2022-09-15T00:50:47.381Z,997.59
2022-09-15T00:51:47.396Z,997.55
2022-09-15T00:52:47.417Z,997.55
2022-09-15T00:53:47.432Z,997.55
2022-09-15T00:54:47.449Z,997.59
2022-09-15T00:55:47.493Z,997.56
2022-09-15T00:56:47.490Z,997.56
2022-09-15T00:57:47.510Z,997.53
2022-09-15T00:58:47.525Z,997.50
2022-09-15T00:59:47.542Z,997.51
2022-09-15T01:00:47.595Z,997.45
2022-09-15T01:01:47.681Z,997.50
2022-09-15T01:02:47.590Z,997.50
2022-09-15T01:03:47.607Z,997.48
2022-09-15T01:04:47.624Z,997.46
2022-09-15T01:05:47.639Z,997.47
2022-09-15T01:06:47.657Z,997.48
2022-09-15T01:07:47.675Z,997.50
2022-09-15T01:08:47.692Z,997.47
2022-09-15T01:09:47.707Z,997.48
2022-09-15T01:10:47.728Z,997.53
2022-09-15T01:11:47.744Z,997.47
2022-09-15T01:12:47.844Z,997.45
2022-09-15T01:13:47.776Z,997.45
2022-09-15T01:14:47.795Z,997.40
2022-09-15T01:15:47.812Z,997.43
2022-09-15T01:16:47.920Z,997.49
2022-09-15T01:17:47.847Z,997.48
2022-09-15T01:18:47.864Z,997.51
2022-09-15T01:19:47.882Z,997.52
2022-09-15T01:20:47.897Z,997.48
2022-09-15T01:21:47.914Z,997.53
2022-09-15T01:22:47.977Z,997.52
2022-09-15T01:23:47.950Z,997.54
2022-09-15T01:24:47.969Z,997.57
2022-09-15T01:25:47.983Z,997.55
2022-09-15T01:26:48.006Z,997.54
2022-09-15T01:27:48.018Z,997.57
2022-09-15T01:28:48.036Z,997.60
2022-09-15T01:29:48.053Z,997.57
2022-09-15T01:30:48.070Z,997.64
2022-09-15T01:31:48.126Z,997.61
2022-09-15T01:32:48.103Z,997.63
2022-09-15T01:33:48.121Z,997.66
2022-09-15T01:34:48.139Z,997.64
2022-09-15T01:35:48.161Z,997.68
2022-09-15T01:36:48.171Z,997.64
2022-09-15T01:37:48.189Z,997.68
2022-09-15T01:38:48.205Z,997.70
2022-09-15T01:39:48.290Z,997.67
2022-09-15T01:40:48.244Z,997.68
2022-09-15T01:41:48.259Z,997.68
2022-09-15T01:42:48.276Z,997.72
2022-09-15T01:43:48.293Z,997.64
2022-09-15T01:44:48.308Z,997.62
2022-09-15T01:45:48.384Z,997.63
2022-09-15T01:46:48.341Z,997.59
2022-09-15T01:47:48.359Z,997.56
2022-09-15T01:48:48.375Z,997.60
2022-09-15T01:49:48.392Z,997.56
2022-09-15T01:50:48.414Z,997.57
2022-09-15T01:51:48.428Z,997.59
2022-09-15T01:52:48.443Z,997.57
2022-09-15T01:53:48.462Z,997.55
2022-09-15T01:54:48.477Z,997.56
2022-09-15T01:55:48.499Z,997.56
2022-09-15T01:56:48.515Z,997.56
2022-09-15T01:57:48.528Z,997.57
2022-09-15T01:58:48.547Z,997.54
2022-09-15T01:59:48.564Z,997.57
2022-09-15T02:00:48.643Z,997.53
2022-09-15T02:01:48.658Z,997.57
2022-09-15T02:02:48.613Z,997.51
2022-09-15T02:03:48.630Z,997.50
2022-09-15T02:04:48.648Z,997.48
2022-09-15T02:05:48.665Z,997.48
2022-09-15T02:06:48.682Z,997.51
2022-09-15T02:07:48.699Z,997.52
2022-09-15T02:08:48.715Z,997.49
2022-09-15T02:09:48.731Z,997.51
2022-09-15T02:10:48.755Z,997.54
2022-09-15T02:11:48.766Z,997.54
2022-09-15T02:12:48.783Z,997.52
2022-09-15T02:13:48.845Z,997.53
2022-09-15T02:14:48.816Z,997.51
2022-09-15T02:15:48.835Z,997.52
2022-09-15T02:16:48.904Z,997.52
2022-09-15T02:17:48.871Z,997.56
2022-09-15T02:18:48.885Z,997.57
2022-09-15T02:19:48.904Z,997.59
2022-09-15T02:20:48.920Z,997.60
2022-09-15T02:21:48.937Z,997.59
2022-09-15T02:22:48.954Z,997.56
2022-09-15T02:23:48.971Z,997.56
2022-09-15T02:24:48.988Z,997.55
2022-09-15T02:25:49.006Z,997.61
2022-09-15T02:26:49.022Z,997.57
2022-09-15T02:27:49.041Z,997.57
2022-09-15T02:28:49.056Z,997.53
2022-09-15T02:29:49.072Z,997.49
2022-09-15T02:30:49.091Z,997.50
2022-09-15T02:31:49.137Z,997.49
2022-09-15T02:32:49.125Z,997.43
2022-09-15T02:33:49.143Z,997.45
2022-09-15T02:34:49.156Z,997.39
2022-09-15T02:35:49.174Z,997.49
2022-09-15T02:36:49.193Z,997.54
2022-09-15T02:37:49.210Z,997.54
2022-09-15T02:38:49.229Z,997.53
2022-09-15T02:39:49.303Z,997.54
2022-09-15T02:40:49.262Z,997.55
2022-09-15T02:41:49.287Z,997.54
2022-09-15T02:42:49.297Z,997.54
2022-09-15T02:43:49.344Z,997.57
2022-09-15T02:44:49.333Z,997.59
2022-09-15T02:45:49.386Z,997.60
2022-09-15T02:46:49.365Z,997.57
2022-09-15T02:47:49.386Z,997.55
2022-09-15T02:48:49.408Z,997.61
2022-09-15T02:49:49.417Z,997.56
2022-09-15T02:50:49.433Z,997.56
2022-09-15T02:51:49.451Z,997.58
2022-09-15T02:52:49.469Z,997.58
2022-09-15T02:53:49.589Z,997.59
2022-09-15T02:54:49.502Z,997.62
2022-09-15T02:55:49.521Z,997.63
2022-09-15T02:56:49.535Z,997.63
2022-09-15T02:57:49.552Z,997.64
2022-09-15T02:58:49.571Z,997.70
2022-09-15T02:59:49.592Z,997.66
2022-09-15T03:00:49.623Z,997.62
2022-09-15T03:01:49.650Z,997.69
2022-09-15T03:02:49.638Z,997.64
2022-09-15T03:03:49.657Z,997.62
2022-09-15T03:04:49.676Z,997.65
2022-09-15T03:05:49.691Z,997.66
2022-09-15T03:06:49.707Z,997.60
2022-09-15T03:07:49.723Z,997.61
2022-09-15T03:08:49.804Z,997.61
2022-09-15T03:09:49.756Z,997.66
2022-09-15T03:10:49.774Z,997.63
2022-09-15T03:11:49.791Z,997.63
2022-09-15T03:12:49.808Z,997.61
2022-09-15T03:13:49.823Z,997.63
2022-09-15T03:14:49.841Z,997.61
2022-09-15T03:15:49.858Z,997.60
2022-09-15T03:16:49.875Z,997.64
2022-09-15T03:17:49.892Z,997.58
2022-09-15T03:18:49.919Z,997.56
2022-09-15T03:19:49.926Z,997.53
2022-09-15T03:20:49.946Z,997.51
2022-09-15T03:21:49.960Z,997.54
2022-09-15T03:22:49.980Z,997.54
2022-09-15T03:23:50.053Z,997.49
2022-09-15T03:24:50.013Z,997.47
2022-09-15T03:25:50.025Z,997.48
2022-09-15T03:26:50.046Z,997.48
2022-09-15T03:27:50.061Z,997.47
2022-09-15T03:28:50.079Z,997.49
2022-09-15T03:29:50.093Z,997.48
2022-09-15T03:30:50.111Z,997.51
2022-09-15T03:31:50.220Z,997.47
2022-09-15T03:32:50.144Z,997.50
2022-09-15T03:33:50.162Z,997.51
2022-09-15T03:34:50.177Z,997.54
2022-09-15T03:35:50.191Z,997.55
2022-09-15T03:36:50.212Z,997.55
2022-09-15T03:37:50.227Z,997.55
2022-09-15T03:38:50.273Z,997.52
2022-09-15T03:39:50.312Z,997.54
2022-09-15T03:40:50.278Z,997.55
2022-09-15T03:41:50.293Z,997.51
2022-09-15T03:42:50.311Z,997.56
2022-09-15T03:43:50.328Z,997.57
2022-09-15T03:44:50.342Z,997.55
2022-09-15T03:45:50.419Z,997.56
2022-09-15T03:46:50.379Z,997.53
2022-09-15T03:47:50.393Z,997.53
2022-09-15T03:48:50.412Z,997.56
2022-09-15T03:49:50.427Z,997.53
2022-09-15T03:50:50.445Z,997.51
2022-09-15T03:51:50.460Z,997.52
2022-09-15T03:52:50.479Z,997.55
2022-09-15T03:53:50.529Z,997.52
2022-09-15T03:54:50.510Z,997.51
2022-09-15T03:55:50.527Z,997.49
2022-09-15T03:56:50.548Z,997.47
2022-09-15T03:57:50.559Z,997.47
2022-09-15T03:58:50.578Z,997.47
2022-09-15T03:59:50.592Z,997.50
2022-09-15T04:00:50.635Z,997.50
2022-09-15T04:01:50.650Z,997.46
2022-09-15T04:02:50.643Z,997.48
2022-09-15T04:03:51.520Z,997.51
2022-09-15T04:04:50.681Z,997.51
2022-09-15T04:05:50.691Z,997.51
2022-09-15T04:06:50.710Z,997.50
2022-09-15T04:07:50.723Z,997.46
2022-09-15T04:08:50.909Z,997.44
2022-09-15T04:09:50.756Z,997.40
2022-09-15T04:10:50.772Z,997.44
2022-09-15T04:11:50.794Z,997.45
2022-09-15T04:12:50.810Z,997.47
2022-09-15T04:13:50.824Z,997.49
2022-09-15T04:14:50.841Z,997.48
2022-09-15T04:15:50.956Z,997.46
2022-09-15T04:16:50.873Z,997.49
2022-09-15T04:17:50.888Z,997.48
2022-09-15T04:18:50.907Z,997.47
2022-09-15T04:19:50.923Z,997.47
2022-09-15T04:20:50.941Z,997.49
2022-09-15T04:21:50.955Z,997.48
2022-09-15T04:22:50.975Z,997.50
2022-09-15T04:23:51.146Z,997.52
2022-09-15T04:24:51.006Z,997.51
2022-09-15T04:25:51.021Z,997.55
2022-09-15T04:26:51.037Z,997.53
2022-09-15T04:27:51.052Z,997.54
2022-09-15T04:28:51.072Z,997.55
2022-09-15T04:29:51.089Z,997.56
2022-09-15T04:30:51.103Z,997.53
2022-09-15T04:31:51.159Z,997.54
2022-09-15T04:32:51.134Z,997.51
2022-09-15T04:33:51.158Z,997.51
2022-09-15T04:34:51.169Z,997.55
2022-09-15T04:35:51.184Z,997.52
2022-09-15T04:36:51.204Z,997.48
2022-09-15T04:37:51.218Z,997.46
2022-09-15T04:38:51.302Z,997.46
2022-09-15T04:39:51.285Z,997.48
2022-09-15T04:40:51.270Z,997.49
2022-09-15T04:41:51.282Z,997.44
2022-09-15T04:42:51.301Z,997.45
2022-09-15T04:43:51.329Z,997.46
2022-09-15T04:44:51.334Z,997.47
2022-09-15T04:45:51.348Z,997.47
2022-09-15T04:46:51.416Z,997.48
2022-09-15T04:47:51.395Z,997.45
2022-09-15T04:48:51.396Z,997.44
2022-09-15T04:49:51.426Z,997.45
2022-09-15T04:50:51.428Z,997.41
2022-09-15T04:51:51.446Z,997.42
2022-09-15T04:52:51.461Z,997.47
2022-09-15T04:53:51.541Z,997.46
2022-09-15T04:54:51.493Z,997.49
2022-09-15T04:55:51.510Z,997.50
2022-09-15T04:56:51.525Z,997.51
2022-09-15T04:57:51.543Z,997.50
2022-09-15T04:58:51.565Z,997.46
2022-09-15T04:59:51.573Z,997.46
2022-09-15T05:00:51.634Z,997.49
2022-09-15T05:01:51.636Z,997.48
2022-09-15T05:02:51.627Z,997.48
2022-09-15T05:03:51.653Z,997.52
2022-09-15T05:04:51.655Z,997.49
2022-09-15T05:05:51.671Z,997.49
2022-09-15T05:06:51.685Z,997.55
2022-09-15T05:07:51.705Z,997.53
2022-09-15T05:08:51.840Z,997.54
2022-09-15T05:09:51.736Z,997.58
2022-09-15T05:10:51.749Z,997.58
2022-09-15T05:11:51.765Z,997.53
2022-09-15T05:12:51.784Z,997.51
2022-09-15T05:13:51.797Z,997.55
2022-09-15T05:14:51.815Z,997.55
2022-09-15T05:15:51.890Z,997.56
2022-09-15T05:16:51.850Z,997.54
2022-09-15T05:17:51.862Z,997.53
2022-09-15T05:18:51.878Z,997.54
2022-09-15T05:19:51.897Z,997.53
2022-09-15T05:20:51.913Z,997.54
2022-09-15T05:21:51.927Z,997.52
2022-09-15T05:22:51.945Z,997.54
2022-09-15T05:23:52.235Z,997.53
2022-09-15T05:24:51.975Z,997.53
2022-09-15T05:25:51.996Z,997.50
2022-09-15T05:26:52.007Z,997.55
2022-09-15T05:27:52.025Z,997.53
2022-09-15T05:28:52.041Z,997.57
2022-09-15T05:30:04.356Z,997.54
2022-09-15T05:30:52.071Z,997.55
2022-09-15T05:31:52.118Z,997.54
2022-09-15T05:32:52.105Z,997.56
2022-09-15T05:33:52.120Z,997.55
2022-09-15T05:34:52.138Z,997.52
2022-09-15T05:35:52.154Z,997.51
2022-09-15T05:36:52.173Z,997.54
2022-09-15T05:37:52.188Z,997.52
2022-09-15T05:38:52.298Z,997.52
2022-09-15T05:39:52.258Z,997.52
2022-09-15T05:40:52.235Z,997.56
2022-09-15T05:41:52.251Z,997.57
2022-09-15T05:42:52.266Z,997.59
2022-09-15T05:43:52.333Z,997.60
2022-09-15T05:44:52.301Z,997.61
2022-09-15T05:45:52.317Z,997.51
2022-09-15T05:46:52.407Z,997.59
2022-09-15T05:47:52.348Z,997.58
2022-09-15T05:48:52.365Z,997.59
2022-09-15T05:49:52.382Z,997.60
2022-09-15T05:50:52.398Z,997.60
2022-09-15T05:51:52.417Z,997.61
2022-09-15T05:52:52.433Z,997.60
2022-09-15T05:53:52.659Z,997.62
2022-09-15T05:54:56.945Z,997.62
2022-09-15T05:55:52.480Z,997.59
2022-09-15T05:56:52.500Z,997.60
2022-09-15T05:57:52.512Z,997.63
2022-09-15T05:58:52.586Z,997.59
2022-09-15T05:59:52.551Z,997.60
2022-09-15T06:00:52.563Z,997.67
2022-09-15T06:01:52.607Z,997.62
2022-09-15T06:02:52.658Z,997.66
2022-09-15T06:03:52.613Z,997.69
2022-09-15T06:04:52.629Z,997.65
2022-09-15T06:05:52.646Z,997.69
2022-09-15T06:06:52.661Z,997.67
2022-09-15T06:07:52.678Z,997.71
2022-09-15T06:08:57.422Z,997.70
2022-09-15T06:09:52.714Z,997.69
2022-09-15T06:10:52.733Z,997.72
2022-09-15T06:11:52.745Z,997.70
2022-09-15T06:12:52.764Z,997.71
2022-09-15T06:13:52.858Z,997.77
2022-09-15T06:14:52.798Z,997.74
2022-09-15T06:15:52.823Z,997.73
2022-09-15T06:16:52.830Z,997.75
2022-09-15T06:17:52.846Z,997.75
2022-09-15T06:18:53.117Z,997.76
2022-09-15T06:19:52.887Z,997.76
2022-09-15T06:20:52.896Z,997.76
2022-09-15T06:21:52.915Z,997.70
2022-09-15T06:22:52.928Z,997.71
2022-09-15T06:23:52.946Z,997.73
2022-09-15T06:24:52.965Z,997.78
2022-09-15T06:25:52.985Z,997.81
2022-09-15T06:26:53.002Z,997.80
2022-09-15T06:27:53.017Z,997.83
2022-09-15T06:28:53.034Z,997.82
2022-09-15T06:29:53.056Z,997.76
2022-09-15T06:30:53.069Z,997.77
2022-09-15T06:31:53.117Z,997.79
2022-09-15T06:32:53.105Z,997.79
2022-09-15T06:33:53.337Z,997.76
2022-09-15T06:34:53.140Z,997.78
2022-09-15T06:35:53.158Z,997.82
2022-09-15T06:36:53.176Z,997.77
2022-09-15T06:37:53.194Z,997.82
2022-09-15T06:38:53.278Z,997.81
2022-09-15T06:39:53.269Z,997.80
2022-09-15T06:40:53.255Z,997.82
2022-09-15T06:42:02.371Z,997.81
2022-09-15T06:42:53.287Z,997.80
2022-09-15T06:43:53.529Z,997.82
2022-09-15T06:44:53.327Z,997.80
2022-09-15T06:45:53.391Z,997.82
2022-09-15T06:46:53.358Z,997.82
2022-09-15T06:48:07.589Z,997.78
2022-09-15T06:48:53.398Z,997.83
2022-09-15T06:49:53.414Z,997.78
2022-09-15T06:50:53.432Z,997.80
2022-09-15T06:51:53.451Z,997.83
2022-09-15T06:52:53.469Z,997.89
2022-09-15T06:53:53.488Z,997.87
2022-09-15T06:54:53.508Z,997.85
2022-09-15T06:55:53.526Z,997.89
2022-09-15T06:56:53.545Z,997.86
2022-09-15T06:57:53.566Z,997.87
2022-09-15T06:58:53.684Z,997.85
2022-09-15T06:59:53.600Z,997.91
2022-09-15T07:00:53.621Z,997.88
2022-09-15T07:01:53.692Z,997.87
2022-09-15T07:02:53.771Z,997.86
2022-09-15T07:03:53.810Z,997.90
2022-09-15T07:04:53.699Z,997.89
2022-09-15T07:05:53.716Z,997.91
2022-09-15T07:06:53.735Z,997.93
2022-09-15T07:07:53.755Z,997.91
2022-09-15T07:08:53.773Z,997.90
2022-09-15T07:09:53.794Z,997.93
2022-09-15T07:10:53.812Z,997.94
2022-09-15T07:11:53.836Z,997.94
2022-09-15T07:12:53.853Z,997.98
2022-09-15T07:13:53.871Z,998.01
2022-09-15T07:14:53.891Z,997.99
2022-09-15T07:15:53.950Z,998.03
2022-09-15T07:16:53.930Z,998.04
2022-09-15T07:17:53.951Z,997.97
2022-09-15T07:18:53.970Z,998.07
2022-09-15T07:19:53.989Z,998.05
2022-09-15T07:20:54.011Z,998.05
2022-09-15T07:21:54.028Z,998.00
2022-09-15T07:22:54.047Z,998.09
2022-09-15T07:23:54.210Z,998.07
2022-09-15T07:24:54.087Z,998.06
2022-09-15T07:25:54.110Z,998.04
2022-09-15T07:26:54.128Z,998.10
2022-09-15T07:27:54.148Z,998.12
2022-09-15T07:28:54.165Z,998.10
2022-09-15T07:29:54.186Z,998.15
2022-09-15T07:30:54.211Z,998.19
2022-09-15T07:31:54.249Z,998.21
2022-09-15T07:32:54.249Z,998.17
2022-09-15T07:33:54.267Z,998.19
2022-09-15T07:34:58.133Z,998.19
2022-09-15T07:35:54.308Z,998.22
2022-09-15T07:36:54.330Z,998.20
2022-09-15T07:37:54.346Z,998.24
2022-09-15T07:38:54.370Z,998.22
2022-09-15T07:39:54.472Z,998.20
2022-09-15T07:40:54.408Z,998.24
2022-09-15T07:41:54.428Z,998.26
2022-09-15T07:42:54.448Z,998.22
2022-09-15T07:43:54.475Z,998.26
2022-09-15T07:44:54.488Z,998.24
2022-09-15T07:45:54.564Z,998.27
2022-09-15T07:46:54.530Z,998.25
2022-09-15T07:47:54.571Z,998.27
2022-09-15T07:48:54.570Z,998.28
2022-09-15T07:49:54.589Z,998.32
2022-09-15T07:50:54.611Z,998.34
2022-09-15T07:51:54.630Z,998.34
2022-09-15T07:52:54.661Z,998.35
2022-09-15T07:53:54.676Z,998.37
2022-09-15T07:54:54.690Z,998.35
2022-09-15T07:55:54.711Z,998.37
2022-09-15T07:56:54.733Z,998.39
2022-09-15T07:57:54.751Z,998.37
2022-09-15T07:58:54.772Z,998.37
2022-09-15T07:59:54.791Z,998.38
2022-09-15T08:00:54.919Z,998.40
2022-09-15T08:01:54.871Z,998.45
2022-09-15T08:02:54.854Z,998.45
2022-09-15T08:03:54.901Z,998.44
2022-09-15T08:04:54.894Z,998.45
2022-09-15T08:05:54.915Z,998.47
2022-09-15T08:06:54.937Z,998.47
2022-09-15T08:07:54.959Z,998.41
2022-09-15T08:09:00.021Z,998.46
2022-09-15T08:09:54.998Z,998.49
2022-09-15T08:10:55.018Z,998.44
2022-09-15T08:11:55.039Z,998.45
2022-09-15T08:12:55.063Z,998.50
2022-09-15T08:13:55.080Z,998.43
2022-09-15T08:14:55.101Z,998.42
2022-09-15T08:15:55.159Z,998.43
2022-09-15T08:16:55.144Z,998.43
2022-09-15T08:17:55.169Z,998.43
2022-09-15T08:18:55.191Z,998.39
2022-09-15T08:19:55.207Z,998.43
2022-09-15T08:20:55.231Z,998.39
2022-09-15T08:21:55.258Z,998.43
2022-09-15T08:22:55.271Z,998.40
2022-09-15T08:23:55.289Z,998.44
2022-09-15T08:24:55.311Z,998.37
2022-09-15T08:25:55.337Z,998.40
2022-09-15T08:26:55.354Z,998.40
2022-09-15T08:27:55.375Z,998.40
2022-09-15T08:28:55.397Z,998.45
2022-09-15T08:29:55.418Z,998.47
2022-09-15T08:30:55.464Z,998.45
2022-09-15T08:31:55.461Z,998.45
2022-09-15T08:32:55.482Z,998.46
2022-09-15T08:33:55.583Z,998.49
2022-09-15T08:34:55.519Z,998.49
2022-09-15T08:35:55.549Z,998.56
2022-09-15T08:36:55.568Z,998.47
2022-09-15T08:37:55.586Z,998.45
2022-09-15T08:38:55.609Z,998.50
2022-09-15T08:39:55.676Z,998.47
2022-09-15T08:40:55.660Z,998.52
2022-09-15T08:41:55.679Z,998.51
2022-09-15T08:42:55.695Z,998.55
2022-09-15T08:43:55.717Z,998.54
2022-09-15T08:44:55.741Z,998.54
2022-09-15T08:45:55.761Z,998.57
2022-09-15T08:46:55.835Z,998.54
2022-09-15T08:47:55.803Z,998.57
2022-09-15T08:48:56.940Z,998.59
2022-09-15T08:49:55.845Z,998.59
2022-09-15T08:50:55.869Z,998.60
2022-09-15T08:51:55.889Z,998.60
2022-09-15T08:52:55.911Z,998.55
2022-09-15T08:53:55.933Z,998.52
2022-09-15T08:54:55.957Z,998.53
2022-09-15T08:55:55.978Z,998.52
2022-09-15T08:56:56.000Z,998.51
2022-09-15T08:57:56.019Z,998.50
2022-09-15T08:58:56.051Z,998.55
2022-09-15T08:59:56.065Z,998.52
2022-09-15T09:00:56.087Z,998.54
2022-09-15T09:01:56.156Z,998.56
2022-09-15T09:02:56.211Z,998.53
2022-09-15T09:03:56.151Z,998.55
2022-09-15T09:04:56.173Z,998.56
2022-09-15T09:05:56.195Z,998.51
2022-09-15T09:06:56.217Z,998.45
2022-09-15T09:07:56.239Z,998.42
2022-09-15T09:08:56.258Z,998.50
2022-09-15T09:09:56.285Z,998.47
2022-09-15T09:10:56.304Z,998.45
2022-09-15T09:11:56.326Z,998.44
2022-09-15T09:12:56.356Z,998.49
2022-09-15T09:13:56.370Z,998.50
2022-09-15T09:14:56.390Z,998.46
2022-09-15T09:15:56.439Z,998.53
2022-09-15T09:16:56.434Z,998.49
2022-09-15T09:17:56.457Z,998.50
2022-09-15T09:18:56.480Z,998.51
2022-09-15T09:19:56.500Z,998.54
2022-09-15T09:20:56.522Z,998.51
2022-09-15T09:21:56.542Z,998.58
2022-09-15T09:22:56.562Z,998.53
2022-09-15T09:23:56.586Z,998.54
2022-09-15T09:24:56.608Z,998.54
2022-09-15T09:25:56.629Z,998.53
2022-09-15T09:26:56.650Z,998.57
2022-09-15T09:27:56.672Z,998.57
2022-09-15T09:28:56.693Z,998.55
2022-09-15T09:29:56.715Z,998.47
2022-09-15T09:30:56.786Z,998.47
2022-09-15T09:31:56.757Z,998.51
2022-09-15T09:32:56.781Z,998.43
2022-09-15T09:33:56.874Z,998.48
2022-09-15T09:34:56.823Z,998.42
2022-09-15T09:35:56.848Z,998.43
2022-09-15T09:36:56.869Z,998.42
2022-09-15T09:37:56.889Z,998.43
2022-09-15T09:38:56.929Z,998.42
2022-09-15T09:39:56.951Z,998.38
2022-09-15T09:41:01.432Z,998.39
2022-09-15T09:41:56.979Z,998.35
2022-09-15T09:42:57.001Z,998.39
2022-09-15T09:43:57.023Z,998.42
2022-09-15T09:44:57.047Z,998.39
2022-09-15T09:45:57.131Z,998.41
2022-09-15T09:46:57.096Z,998.41
2022-09-15T09:48:01.327Z,998.39
2022-09-15T09:48:57.138Z,998.39
2022-09-15T09:49:57.155Z,998.38
2022-09-15T09:50:57.189Z,998.40
2022-09-15T09:51:57.215Z,998.41
2022-09-15T09:52:57.226Z,998.36
2022-09-15T09:53:57.249Z,998.39
2022-09-15T09:54:57.270Z,998.42
2022-09-15T09:55:57.298Z,998.38
2022-09-15T09:56:57.317Z,998.35
2022-09-15T09:57:57.339Z,998.35
2022-09-15T09:58:57.364Z,998.42
2022-09-15T09:59:57.385Z,998.33
2022-09-15T10:00:57.429Z,998.34
2022-09-15T10:01:57.431Z,998.32
2022-09-15T10:02:57.458Z,998.34
2022-09-15T10:03:57.475Z,998.39
2022-09-15T10:04:57.515Z,998.42
2022-09-15T10:05:57.541Z,998.48
2022-09-15T10:06:57.545Z,998.53
2022-09-15T10:07:57.568Z,998.52
2022-09-15T10:08:57.589Z,998.45
2022-09-15T10:09:57.610Z,998.46
2022-09-15T10:10:57.634Z,998.53
2022-09-15T10:11:57.655Z,998.47
2022-09-15T10:12:57.678Z,998.44
2022-09-15T10:13:57.702Z,998.39
2022-09-15T10:14:57.722Z,998.34
2022-09-15T10:15:57.748Z,998.36
2022-09-15T10:16:57.795Z,998.44
2022-09-15T10:17:57.791Z,998.40
2022-09-15T10:18:57.814Z,998.42
2022-09-15T10:19:57.840Z,998.44
2022-09-15T10:20:57.860Z,998.55
2022-09-15T10:21:57.886Z,998.50
2022-09-15T10:22:57.905Z,998.49
2022-09-15T10:23:57.929Z,998.43
2022-09-15T10:24:57.954Z,998.43
2022-09-15T10:26:00.152Z,998.35
2022-09-15T10:26:57.998Z,998.46
2022-09-15T10:27:58.021Z,998.41
2022-09-15T10:28:58.045Z,998.42
2022-09-15T10:29:58.083Z,998.36
2022-09-15T10:30:58.096Z,998.37
2022-09-15T10:31:58.188Z,998.45
2022-09-15T10:32:58.149Z,998.47
2022-09-15T10:33:58.176Z,998.50
2022-09-15T10:34:58.194Z,998.43
2022-09-15T10:35:58.208Z,998.40
2022-09-15T10:36:58.231Z,998.39
2022-09-15T10:37:58.270Z,998.44
2022-09-15T10:38:58.290Z,998.45
2022-09-15T10:39:58.323Z,998.55
2022-09-15T10:40:58.324Z,998.51
2022-09-15T10:41:58.345Z,998.46
2022-09-15T10:42:58.369Z,998.47
2022-09-15T10:43:58.393Z,998.46
2022-09-15T10:44:58.417Z,998.42
2022-09-15T10:45:58.474Z,998.42
2022-09-15T10:46:58.460Z,998.48
2022-09-15T10:47:58.485Z,998.50
2022-09-15T10:48:58.506Z,998.43
2022-09-15T10:49:58.529Z,998.41
2022-09-15T10:50:58.553Z,998.45
2022-09-15T10:51:58.574Z,998.38
2022-09-15T10:52:58.599Z,998.52
2022-09-15T10:53:58.711Z,998.34
2022-09-15T10:54:58.643Z,998.30
2022-09-15T10:55:58.668Z,998.33
2022-09-15T10:56:58.689Z,998.36
2022-09-15T10:57:58.712Z,998.31
2022-09-15T10:58:58.738Z,998.29
2022-09-15T10:59:58.759Z,998.28
2022-09-15T11:00:58.846Z,998.22
2022-09-15T11:01:58.857Z,998.22
2022-09-15T11:02:58.829Z,998.24
2022-09-15T11:03:58.853Z,998.18
2022-09-15T11:04:58.878Z,998.23
2022-09-15T11:05:58.901Z,998.27
2022-09-15T11:06:58.925Z,998.30
2022-09-15T11:07:58.949Z,998.20
2022-09-15T11:08:58.972Z,998.20
2022-09-15T11:09:58.994Z,998.18
2022-09-15T11:10:59.018Z,998.16
2022-09-15T11:11:59.041Z,998.12
2022-09-15T11:12:59.077Z,998.16
2022-09-15T11:13:59.087Z,998.21
2022-09-15T11:14:59.119Z,998.31
2022-09-15T11:15:59.191Z,998.30
2022-09-15T11:16:59.158Z,998.28
2022-09-15T11:17:59.180Z,998.24
2022-09-15T11:18:59.207Z,998.21
2022-09-15T11:19:59.229Z,998.28
2022-09-15T11:20:59.252Z,998.21
2022-09-15T11:21:59.273Z,998.19
2022-09-15T11:22:59.296Z,998.15
2022-09-15T11:23:59.337Z,998.12
2022-09-15T11:24:59.345Z,998.19
2022-09-15T11:25:59.369Z,998.20
2022-09-15T11:26:59.395Z,998.16
2022-09-15T11:27:59.413Z,998.24
2022-09-15T11:28:59.438Z,998.14
2022-09-15T11:29:59.458Z,998.17
2022-09-15T11:30:59.537Z,998.25
2022-09-15T11:31:59.585Z,998.24
2022-09-15T11:32:59.531Z,998.27
2022-09-15T11:33:59.552Z,998.33
2022-09-15T11:34:59.573Z,998.22
2022-09-15T11:35:59.596Z,998.21
2022-09-15T11:36:59.621Z,998.25
2022-09-15T11:37:59.644Z,998.25
2022-09-15T11:38:59.665Z,998.30
2022-09-15T11:39:59.745Z,998.18
2022-09-15T11:40:59.713Z,998.29
2022-09-15T11:41:59.735Z,998.24
2022-09-15T11:42:59.756Z,998.25
2022-09-15T11:43:59.780Z,998.30
2022-09-15T11:44:59.805Z,998.19
2022-09-15T11:45:59.829Z,998.32
2022-09-15T11:46:59.874Z,998.34
2022-09-15T11:47:59.870Z,998.36
2022-09-15T11:48:59.895Z,998.31
2022-09-15T11:49:59.917Z,998.33
2022-09-15T11:50:59.941Z,998.28
2022-09-15T11:51:59.963Z,998.27
2022-09-15T11:52:59.987Z,998.24
2022-09-15T11:54:00.008Z,998.33
2022-09-15T11:55:00.034Z,998.34
2022-09-15T11:56:00.056Z,998.33
2022-09-15T11:57:00.077Z,998.30
2022-09-15T11:58:00.103Z,998.23
2022-09-15T11:59:00.123Z,998.28
2022-09-15T12:00:00.148Z,998.28
2022-09-15T12:01:00.170Z,998.30
2022-09-15T12:02:00.256Z,998.27
2022-09-15T12:03:00.248Z,998.31
2022-09-15T12:04:00.238Z,998.37
2022-09-15T12:05:00.266Z,998.33
2022-09-15T12:06:00.284Z,998.34
2022-09-15T12:08:00.329Z,998.37
2022-09-15T12:09:00.353Z,998.24
2022-09-15T12:10:00.378Z,998.24
2022-09-15T12:11:00.398Z,998.22
2022-09-15T12:12:00.419Z,998.21
2022-09-15T12:13:00.446Z,998.15
2022-09-15T12:14:00.472Z,998.15
2022-09-15T12:15:00.487Z,998.17
2022-09-15T12:16:00.562Z,998.13
2022-09-15T12:17:00.532Z,998.22
2022-09-15T12:18:06.434Z,998.27
2022-09-15T12:19:00.578Z,998.29
2022-09-15T12:20:00.601Z,998.28
2022-09-15T12:21:00.626Z,998.27
2022-09-15T12:22:00.645Z,998.27
2022-09-15T12:23:00.668Z,998.22
2022-09-15T12:24:00.689Z,998.16
2022-09-15T12:25:01.258Z,998.14
2022-09-15T12:26:00.734Z,998.15
2022-09-15T12:27:00.757Z,998.16
2022-09-15T12:28:00.778Z,998.18
2022-09-15T12:29:00.800Z,998.22
2022-09-15T12:30:00.828Z,998.19